createdAt,value
2023-04-01T00:00:06.654Z,2.05
2023-04-01T00:03:08.272Z,1.90
2023-04-01T00:06:14.638Z,2.10
2023-04-01T00:09:16.253Z,2.28
2023-04-01T00:12:17.792Z,2.33
2023-04-01T00:15:19.492Z,2.13
2023-04-01T00:18:21.577Z,1.83
2023-04-01T00:21:23.519Z,2.25
2023-04-01T00:24:25.344Z,1.67
2023-04-01T00:27:26.979Z,1.70
2023-04-01T00:30:28.620Z,1.90
2023-04-01T00:33:31.323Z,1.63
2023-04-01T00:36:32.909Z,1.60
2023-04-01T00:39:36.036Z,1.73
2023-04-01T00:42:37.597Z,1.70
2023-04-01T00:45:42.127Z,1.83
2023-04-01T00:48:49.177Z,1.80
2023-04-01T00:51:55.107Z,1.90
2023-04-01T00:55:00.553Z,2.08
2023-04-01T00:58:06.068Z,1.80
2023-04-01T01:01:09.910Z,1.52
2023-04-01T01:04:24.766Z,1.50
2023-04-01T01:07:56.932Z,1.67
2023-04-01T01:10:58.569Z,1.50
2023-04-01T01:14:15.651Z,1.75
2023-04-01T01:17:32.595Z,1.30
2023-04-01T01:20:57.801Z,1.38
2023-04-01T01:24:29.618Z,1.13
2023-04-01T01:27:33.782Z,1.20
2023-04-01T01:31:13.032Z,1.20
2023-04-01T01:34:37.312Z,1.77
2023-04-01T01:37:41.927Z,1.50
2023-04-01T01:40:47.022Z,1.65
2023-04-01T01:43:51.577Z,1.45
2023-04-01T01:46:53.158Z,1.45
2023-04-01T01:49:56.191Z,1.52
2023-04-01T01:53:03.771Z,1.50
2023-04-01T01:56:06.079Z,1.30
2023-04-01T01:59:11.944Z,1.27
2023-04-01T02:02:15.947Z,1.30
2023-04-01T02:05:25.649Z,1.60
2023-04-01T02:08:32.221Z,1.35
2023-04-01T02:11:41.097Z,1.40
2023-04-01T02:14:57.308Z,1.27
2023-04-01T02:17:59.544Z,1.33
2023-04-01T02:21:01.925Z,1.27
2023-04-01T02:24:07.946Z,1.40
2023-04-01T02:27:11.308Z,1.45
2023-04-01T02:30:14.724Z,1.40
2023-04-01T02:33:17.587Z,1.67
2023-04-01T02:36:19.444Z,1.65
2023-04-01T02:39:21.629Z,2.28
2023-04-01T02:42:23.186Z,1.70
2023-04-01T02:45:24.778Z,1.95
2023-04-01T02:48:26.394Z,1.80
2023-04-01T02:51:28.063Z,1.70
2023-04-01T02:54:29.691Z,1.63
2023-04-01T02:57:31.383Z,1.60
2023-04-01T03:00:33.174Z,1.52
2023-04-01T03:03:34.958Z,1.60
2023-04-01T03:06:36.557Z,1.58
2023-04-01T03:09:39.595Z,1.20
2023-04-01T03:12:41.506Z,1.45
2023-04-01T03:15:43.056Z,1.48
2023-04-01T03:18:45.067Z,1.88
2023-04-01T03:21:46.628Z,1.70
2023-04-01T03:24:49.516Z,1.55
2023-04-01T03:27:51.070Z,2.13
2023-04-01T03:30:52.665Z,1.48
2023-04-01T03:33:54.353Z,1.90
2023-04-01T03:36:55.901Z,2.03
2023-04-01T03:39:57.426Z,1.80
2023-04-01T03:42:59.062Z,2.10
2023-04-01T03:46:00.749Z,1.75
2023-04-01T03:49:03.454Z,1.90
2023-04-01T03:52:05.078Z,2.05
2023-04-01T03:55:06.993Z,1.95
2023-04-01T03:58:09.633Z,1.90
2023-04-01T04:01:19.424Z,2.20
2023-04-01T04:04:21.163Z,2.25
2023-04-01T04:07:22.776Z,2.10
2023-04-01T04:10:25.826Z,2.03
2023-04-01T04:13:27.397Z,2.20
2023-04-01T04:16:29.250Z,2.10
2023-04-01T04:19:34.851Z,2.17
2023-04-01T04:22:36.410Z,1.95
2023-04-01T04:25:37.969Z,1.90
2023-04-01T04:28:39.757Z,1.98
2023-04-01T04:31:41.293Z,1.90
2023-04-01T04:34:42.869Z,2.05
2023-04-01T04:37:44.759Z,2.00
2023-04-01T04:40:46.480Z,1.90
2023-04-01T04:43:54.516Z,1.83
2023-04-01T04:46:58.381Z,2.22
2023-04-01T04:50:00.287Z,2.10
2023-04-01T04:53:02.312Z,2.00
2023-04-01T04:56:03.884Z,2.30
2023-04-01T04:59:06.255Z,2.10
2023-04-01T05:02:07.878Z,2.30
2023-04-01T05:05:09.766Z,2.85
2023-04-01T05:08:11.340Z,3.03
2023-04-01T05:11:15.953Z,3.30
2023-04-01T05:14:17.790Z,3.50
2023-04-01T05:17:19.385Z,3.17
2023-04-01T05:20:20.950Z,3.03
2023-04-01T05:23:23.505Z,2.90
2023-04-01T05:26:25.121Z,3.55
2023-04-01T05:29:27.124Z,3.00
2023-04-01T05:32:28.680Z,3.33
2023-04-01T05:35:30.396Z,3.05
2023-04-01T05:38:32.009Z,3.05
2023-04-01T05:41:36.498Z,3.22
2023-04-01T05:44:38.194Z,3.10
2023-04-01T05:47:39.841Z,3.60
2023-04-01T05:50:42.550Z,3.40
2023-04-01T05:53:44.623Z,3.35
2023-04-01T05:56:47.623Z,3.30
2023-04-01T05:59:50.352Z,3.42
2023-04-01T06:02:53.205Z,3.65
2023-04-01T06:05:54.858Z,3.47
2023-04-01T06:09:01.501Z,3.92
2023-04-01T06:12:09.160Z,3.30
2023-04-01T06:15:26.622Z,3.47
2023-04-01T06:18:39.965Z,3.80
2023-04-01T06:22:07.182Z,4.05
2023-04-01T06:25:29.831Z,3.50
2023-04-01T06:28:52.794Z,3.50
2023-04-01T06:32:16.344Z,3.75
2023-04-01T06:35:23.861Z,3.17
2023-04-01T06:38:50.241Z,3.60
2023-04-01T06:42:00.639Z,3.60
2023-04-01T06:45:19.269Z,3.90
2023-04-01T06:48:41.890Z,3.80
2023-04-01T06:52:08.056Z,3.40
2023-04-01T06:55:24.272Z,3.85
2023-04-01T06:58:30.054Z,3.70
2023-04-01T07:01:55.029Z,3.90
2023-04-01T07:04:58.921Z,3.63
2023-04-01T07:08:03.291Z,3.50
2023-04-01T07:11:17.760Z,4.53
2023-04-01T07:14:29.597Z,3.67
2023-04-01T07:17:40.118Z,4.50
2023-04-01T07:20:41.882Z,4.97
2023-04-01T07:23:46.482Z,4.80
2023-04-01T07:26:51.231Z,4.15
2023-04-01T07:29:52.824Z,5.82
2023-04-01T07:33:05.332Z,7.13
2023-04-01T07:36:21.309Z,6.53
2023-04-01T07:39:41.887Z,7.25
2023-04-01T07:43:15.020Z,7.47
2023-04-01T07:46:26.851Z,8.35
2023-04-01T07:49:38.928Z,7.30
2023-04-01T07:53:07.518Z,7.95
2023-04-01T07:56:28.805Z,7.97
2023-04-01T07:59:36.230Z,8.95
2023-04-01T08:02:48.879Z,8.65
2023-04-01T08:06:17.547Z,9.00
2023-04-01T08:09:32.904Z,8.30
2023-04-01T08:13:01.989Z,9.13
2023-04-01T08:16:21.192Z,9.77
2023-04-01T08:19:57.224Z,11.05
2023-04-01T08:23:06.698Z,10.95
2023-04-01T08:26:30.653Z,10.32
2023-04-01T08:29:43.832Z,9.70
2023-04-01T08:32:56.684Z,11.18
2023-04-01T08:36:19.950Z,11.75
2023-04-01T08:39:33.555Z,10.93
2023-04-01T08:43:17.094Z,9.82
2023-04-01T08:46:39.569Z,10.30
2023-04-01T08:50:14.893Z,9.07
2023-04-01T08:53:50.756Z,10.00
2023-04-01T08:57:01.815Z,10.20
2023-04-01T09:00:04.223Z,10.77
2023-04-01T09:03:30.456Z,10.43
2023-04-01T09:06:42.550Z,10.75
2023-04-01T09:10:02.250Z,11.85
2023-04-01T09:13:36.353Z,12.05
2023-04-01T09:17:15.583Z,13.02
2023-04-01T09:20:46.890Z,13.55
2023-04-01T09:24:06.992Z,14.40
2023-04-01T09:27:26.600Z,14.65
2023-04-01T09:31:06.039Z,14.02
2023-04-01T09:34:19.417Z,13.45
2023-04-01T09:37:40.948Z,12.13
2023-04-01T09:40:48.770Z,10.90
2023-04-01T09:44:05.386Z,12.35
2023-04-01T09:47:28.800Z,12.40
2023-04-01T09:50:37.776Z,12.85
2023-04-01T09:53:45.604Z,14.15
2023-04-01T09:57:07.909Z,14.65
2023-04-01T10:00:23.095Z,14.98
2023-04-01T10:03:58.544Z,14.60
2023-04-01T10:07:29.488Z,13.98
2023-04-01T10:10:34.034Z,14.43
2023-04-01T10:13:53.820Z,14.20
2023-04-01T10:17:14.492Z,13.27
2023-04-01T10:20:21.913Z,15.60
2023-04-01T10:23:52.972Z,14.77
2023-04-01T10:27:15.881Z,13.20
2023-04-01T10:30:36.313Z,15.35
2023-04-01T10:33:56.655Z,15.70
2023-04-01T10:37:00.406Z,16.00
2023-04-01T10:40:25.181Z,15.27
2023-04-01T10:43:49.540Z,12.88
2023-04-01T10:47:19.552Z,13.73
2023-04-01T10:50:35.857Z,16.57
2023-04-01T10:53:56.370Z,14.15
2023-04-01T10:57:18.488Z,13.63
2023-04-01T11:00:52.392Z,14.15
2023-04-01T11:04:11.568Z,13.68
2023-04-01T11:07:24.783Z,14.60
2023-04-01T11:10:58.568Z,15.50
2023-04-01T11:14:27.866Z,16.45
2023-04-01T11:18:02.098Z,17.13
2023-04-01T11:21:09.817Z,15.85
2023-04-01T11:24:29.939Z,15.48
2023-04-01T11:27:57.856Z,16.08
2023-04-01T11:31:34.397Z,17.88
2023-04-01T11:34:53.064Z,17.10
2023-04-01T11:38:19.244Z,16.85
2023-04-01T11:42:01.713Z,15.48
2023-04-01T11:45:17.570Z,16.85
2023-04-01T11:48:48.181Z,15.63
2023-04-01T11:52:15.996Z,17.20
2023-04-01T11:55:32.555Z,17.88
2023-04-01T11:59:00.106Z,18.52
2023-04-01T12:02:23.156Z,17.52
2023-04-01T12:05:48.694Z,18.52
2023-04-01T12:09:24.847Z,16.80
2023-04-01T12:13:01.643Z,16.15
2023-04-01T12:16:32.953Z,20.35
2023-04-01T12:19:45.021Z,19.65
2023-04-01T12:23:12.306Z,18.20
2023-04-01T12:26:24.189Z,19.00
2023-04-01T12:29:40.829Z,17.70
2023-04-01T12:32:54.418Z,15.88
2023-04-01T12:36:08.561Z,18.45
2023-04-01T12:39:20.039Z,20.20
2023-04-01T12:42:42.406Z,22.00
2023-04-01T12:46:07.743Z,20.63
2023-04-01T12:49:27.952Z,18.88
2023-04-01T12:52:52.493Z,17.52
2023-04-01T12:55:55.189Z,15.38
2023-04-01T12:59:22.678Z,14.55
2023-04-01T13:02:29.471Z,14.02
2023-04-01T13:06:09.590Z,13.45
2023-04-01T13:09:17.947Z,12.40
2023-04-01T13:13:00.396Z,12.35
2023-04-01T13:16:11.060Z,12.13
2023-04-01T13:22:48.001Z,12.63
2023-04-01T13:26:14.484Z,11.57
2023-04-01T13:29:26.595Z,12.20
2023-04-01T13:32:43.503Z,12.68
2023-04-01T13:36:20.111Z,11.60
2023-04-01T13:39:30.839Z,11.43
2023-04-01T13:46:00.600Z,11.95
2023-04-01T13:49:08.592Z,12.10
2023-04-01T13:52:20.940Z,11.60
2023-04-01T13:55:41.521Z,12.35
2023-04-01T13:59:01.080Z,11.93
2023-04-01T14:02:24.231Z,11.63
2023-04-01T14:05:47.416Z,11.93
2023-04-01T14:09:33.883Z,11.82
2023-04-01T14:12:46.784Z,13.75
2023-04-01T14:15:57.786Z,13.95
2023-04-01T14:19:26.394Z,13.60
2023-04-01T14:23:22.626Z,12.77
2023-04-01T14:26:41.412Z,13.77
2023-04-01T14:30:04.766Z,13.95
2023-04-01T14:33:32.270Z,13.93
2023-04-01T14:36:44.197Z,13.20
2023-04-01T14:40:16.931Z,14.30
2023-04-01T14:43:52.495Z,16.30
2023-04-01T14:47:41.675Z,17.38
2023-04-01T14:50:47.372Z,18.67
2023-04-01T14:54:23.751Z,15.20
2023-04-01T14:57:30.946Z,17.25
2023-04-01T15:00:51.516Z,17.92
2023-04-01T15:04:18.076Z,17.15
2023-04-01T15:07:28.443Z,16.98
2023-04-01T15:10:54.292Z,13.88
2023-04-01T15:14:20.599Z,13.32
2023-04-01T15:17:28.318Z,13.73
2023-04-01T15:20:36.755Z,13.13
2023-04-01T15:23:58.285Z,12.50
2023-04-01T15:26:59.816Z,11.48
2023-04-01T15:30:20.033Z,12.38
2023-04-01T15:33:33.146Z,12.35
2023-04-01T15:36:41.631Z,10.07
2023-04-01T15:40:02.170Z,10.73
2023-04-01T15:43:23.062Z,10.10
2023-04-01T15:46:48.607Z,9.43
2023-04-01T15:49:57.934Z,10.20
2023-04-01T15:53:26.985Z,9.10
2023-04-01T15:56:59.810Z,9.00
2023-04-01T16:00:07.371Z,8.27
2023-04-01T16:03:32.043Z,8.40
2023-04-01T16:07:05.794Z,8.35
2023-04-01T16:10:17.162Z,8.50
2023-04-01T16:13:26.026Z,7.75
2023-04-01T16:16:39.806Z,8.98
2023-04-01T16:20:02.654Z,9.65
2023-04-01T16:23:21.562Z,10.55
2023-04-01T16:26:45.264Z,11.40
2023-04-01T16:29:57.037Z,12.82
2023-04-01T16:33:07.021Z,11.10
2023-04-01T16:36:34.782Z,11.20
2023-04-01T16:39:55.025Z,11.50
2023-04-01T16:43:19.562Z,12.25
2023-04-01T16:46:32.884Z,10.43
2023-04-01T16:49:45.493Z,11.93
2023-04-01T16:53:01.774Z,13.10
2023-04-01T16:56:03.594Z,13.32
2023-04-01T16:59:16.009Z,14.02
2023-04-01T17:02:21.322Z,14.13
2023-04-01T17:05:47.965Z,16.48
2023-04-01T17:09:08.823Z,14.20
2023-04-01T17:15:32.864Z,16.27
2023-04-01T17:18:56.443Z,22.05
2023-04-01T17:22:16.545Z,16.63
2023-04-01T17:25:42.241Z,21.60
2023-04-01T17:29:02.537Z,18.92
2023-04-01T17:32:22.423Z,17.30
2023-04-01T17:35:33.140Z,18.90
2023-04-01T17:38:41.490Z,16.80
2023-04-01T17:42:05.850Z,21.88
2023-04-01T17:45:34.165Z,20.98
2023-04-01T17:49:04.075Z,20.45
2023-04-01T17:52:23.766Z,16.33
2023-04-01T17:55:40.826Z,23.25
2023-04-01T17:59:08.409Z,20.10
2023-04-01T18:02:48.384Z,19.80
2023-04-01T18:06:17.442Z,18.73
2023-04-01T18:09:36.205Z,17.33
2023-04-01T18:13:06.925Z,18.38
2023-04-01T18:16:39.507Z,17.50
2023-04-01T18:19:59.585Z,19.38
2023-04-01T18:23:24.159Z,19.42
2023-04-01T18:26:35.558Z,18.52
2023-04-01T18:29:55.738Z,19.40
2023-04-01T18:33:05.423Z,17.08
2023-04-01T18:36:19.306Z,13.98
2023-04-01T18:39:40.489Z,18.38
2023-04-01T18:43:01.029Z,17.80
2023-04-01T18:46:10.264Z,17.70
2023-04-01T18:49:30.836Z,17.85
2023-04-01T18:52:40.068Z,18.17
2023-04-01T18:55:48.459Z,17.83
2023-04-01T18:59:00.021Z,18.88
2023-04-01T19:02:20.491Z,15.20
2023-04-01T19:05:33.469Z,18.42
2023-04-01T19:08:40.490Z,17.42
2023-04-01T19:12:08.538Z,18.50
2023-04-01T19:15:32.050Z,17.55
2023-04-01T19:18:58.446Z,17.90
2023-04-01T19:22:14.199Z,12.85
2023-04-01T19:25:21.984Z,16.27
2023-04-01T19:28:57.070Z,13.07
2023-04-01T19:32:01.706Z,12.18
2023-04-01T19:35:43.134Z,11.07
2023-04-01T19:39:01.668Z,10.27
2023-04-01T19:42:25.046Z,7.40
2023-04-01T19:45:49.685Z,6.40
2023-04-01T19:49:19.326Z,5.30
2023-04-01T19:52:38.179Z,4.90
2023-04-01T19:56:03.109Z,5.05
2023-04-01T19:59:24.998Z,4.68
2023-04-01T20:02:40.617Z,5.00
2023-04-01T20:06:25.693Z,4.93
2023-04-01T20:09:57.268Z,5.15
2023-04-01T20:13:12.818Z,4.68
2023-04-01T20:16:16.219Z,4.85
2023-04-01T20:19:34.008Z,4.97
2023-04-01T20:22:44.489Z,5.25
2023-04-01T20:26:13.823Z,5.60
2023-04-01T20:29:47.987Z,5.45
2023-04-01T20:33:13.745Z,5.70
2023-04-01T20:36:24.614Z,5.78
2023-04-01T20:39:53.541Z,5.47
2023-04-01T20:42:58.142Z,5.22
2023-04-01T20:46:05.072Z,5.53
2023-04-01T20:49:41.375Z,5.38
2023-04-01T20:53:02.476Z,5.32
2023-04-01T20:56:28.994Z,5.03
2023-04-01T20:59:51.079Z,4.50
2023-04-01T21:03:06.962Z,4.40
2023-04-01T21:06:49.116Z,4.38
2023-04-01T21:10:28.576Z,5.03
2023-04-01T21:13:38.879Z,4.65
2023-04-01T21:16:54.262Z,4.32
2023-04-01T21:20:47.621Z,4.95
2023-04-01T21:24:18.416Z,3.40
2023-04-01T21:39:25.025Z,4.75
2023-04-01T21:42:37.419Z,5.05
2023-04-01T21:45:49.788Z,5.97
2023-04-01T21:49:08.850Z,5.90
2023-04-01T21:52:49.713Z,6.00
2023-04-01T21:59:31.966Z,6.18
2023-04-01T22:02:44.907Z,6.78
2023-04-01T22:05:57.661Z,6.47
2023-04-01T22:09:12.718Z,6.57
2023-04-01T22:12:30.307Z,6.10
2023-04-01T22:15:51.615Z,6.25
2023-04-01T22:19:04.820Z,6.75
2023-04-01T22:22:19.703Z,6.55
2023-04-01T22:25:32.559Z,6.90
2023-04-01T22:28:45.374Z,7.75
2023-04-01T22:32:08.296Z,7.68
2023-04-01T22:35:19.370Z,7.57
2023-04-01T22:38:29.895Z,7.30
2023-04-01T22:41:57.866Z,6.93
2023-04-01T22:45:22.066Z,7.40
2023-04-01T22:48:42.375Z,7.10
2023-04-01T22:51:46.827Z,7.40
2023-04-01T22:54:54.724Z,6.90
2023-04-01T22:58:05.824Z,7.05
2023-04-01T23:01:14.244Z,7.43
2023-04-01T23:04:18.864Z,7.30
2023-04-01T23:07:50.041Z,7.25
2023-04-01T23:10:58.643Z,7.53
2023-04-01T23:14:27.583Z,7.65
2023-04-01T23:17:46.626Z,8.38
2023-04-01T23:21:20.889Z,8.50
2023-04-01T23:24:34.968Z,9.30
2023-04-01T23:27:54.267Z,9.80
2023-04-01T23:30:55.900Z,9.02
2023-04-01T23:34:00.400Z,9.57
2023-04-01T23:37:12.822Z,9.10
2023-04-01T23:40:15.430Z,9.25
2023-04-01T23:43:33.045Z,9.13
2023-04-01T23:46:35.995Z,9.20
2023-04-01T23:49:42.432Z,8.70
2023-04-01T23:52:49.090Z,9.25
2023-04-01T23:55:52.415Z,8.65
2023-04-01T23:58:57.767Z,7.70
